createdAt,value
2017-07-03T00:00:43.064Z,0
2017-07-03T00:01:43.070Z,0
2017-07-03T00:02:43.075Z,0
2017-07-03T00:03:43.084Z,0
2017-07-03T00:04:43.037Z,0
2017-07-03T00:05:43.036Z,0
2017-07-03T00:06:43.073Z,0
2017-07-03T00:07:43.008Z,0
2017-07-03T00:08:42.994Z,0
2017-07-03T00:09:43.046Z,0
2017-07-03T00:10:43.046Z,0
2017-07-03T00:11:43.045Z,0
2017-07-03T00:12:43.048Z,0
2017-07-03T00:13:43.047Z,0
2017-07-03T00:14:43.049Z,0
2017-07-03T00:15:43.049Z,0
2017-07-03T00:16:43.048Z,0
2017-07-03T00:17:43.051Z,0
2017-07-03T00:18:43.051Z,0
2017-07-03T00:19:43.052Z,0
2017-07-03T00:20:43.053Z,0
2017-07-03T00:21:43.061Z,0
2017-07-03T00:22:43.054Z,0
2017-07-03T00:23:43.051Z,0
2017-07-03T00:24:43.055Z,0
2017-07-03T00:25:43.055Z,0
2017-07-03T00:26:43.058Z,0
2017-07-03T00:27:43.060Z,0
2017-07-03T00:28:43.056Z,0
2017-07-03T00:29:43.070Z,0
2017-07-03T00:30:43.085Z,0
2017-07-03T00:31:43.070Z,0
2017-07-03T00:32:43.079Z,0
2017-07-03T00:33:43.072Z,0
2017-07-03T00:34:43.158Z,0
2017-07-03T00:35:43.069Z,0
2017-07-03T00:36:43.075Z,0
2017-07-03T00:37:43.073Z,0
2017-07-03T00:38:43.090Z,0
2017-07-03T00:39:43.097Z,0
2017-07-03T00:40:43.077Z,0
2017-07-03T00:41:43.015Z,0
2017-07-03T00:42:43.075Z,0
2017-07-03T00:43:43.083Z,0
2017-07-03T00:44:43.083Z,0
2017-07-03T00:45:43.082Z,0
2017-07-03T00:46:43.080Z,0
2017-07-03T00:47:43.078Z,0
2017-07-03T00:48:43.080Z,0
2017-07-03T00:49:43.083Z,0
2017-07-03T00:50:43.095Z,0
2017-07-03T00:51:43.081Z,0
2017-07-03T00:52:43.082Z,0
2017-07-03T00:53:43.095Z,0
2017-07-03T00:54:43.087Z,0
2017-07-03T00:55:43.087Z,0
2017-07-03T00:56:43.100Z,0
2017-07-03T00:57:43.088Z,0
2017-07-03T00:58:43.086Z,0
2017-07-03T00:59:43.109Z,0
2017-07-03T01:00:43.025Z,0
2017-07-03T01:01:43.109Z,0
2017-07-03T01:02:43.014Z,0
2017-07-03T01:03:43.115Z,0
2017-07-03T01:04:43.093Z,0
2017-07-03T01:05:43.027Z,0
2017-07-03T01:06:43.095Z,0
2017-07-03T01:07:43.103Z,0
2017-07-03T01:08:43.108Z,0
2017-07-03T01:09:43.091Z,0
2017-07-03T01:10:43.100Z,0
2017-07-03T01:11:43.204Z,0
2017-07-03T01:12:43.093Z,0
2017-07-03T01:13:43.178Z,0
2017-07-03T01:14:43.091Z,0
2017-07-03T01:15:43.091Z,0
2017-07-03T01:16:43.098Z,0
2017-07-03T01:17:43.102Z,0
2017-07-03T01:18:43.096Z,0
2017-07-03T01:19:43.113Z,0
2017-07-03T01:20:43.121Z,0
2017-07-03T01:21:43.031Z,0
2017-07-03T01:22:43.039Z,0
2017-07-03T01:23:43.121Z,0
2017-07-03T01:24:43.039Z,0
2017-07-03T01:25:43.038Z,0
2017-07-03T01:26:43.113Z,0
2017-07-03T01:27:43.034Z,0
2017-07-03T01:28:43.114Z,0
2017-07-03T01:29:43.037Z,0
2017-07-03T01:30:43.036Z,0
2017-07-03T01:31:43.071Z,0
2017-07-03T01:32:43.127Z,0
2017-07-03T01:33:43.112Z,0
2017-07-03T01:34:43.138Z,0
2017-07-03T01:35:43.094Z,0
2017-07-03T01:36:43.128Z,0
2017-07-03T01:37:43.123Z,0
2017-07-03T01:38:43.116Z,0
2017-07-03T01:39:43.130Z,0
2017-07-03T01:40:43.108Z,0
2017-07-03T01:41:43.115Z,0
2017-07-03T01:42:43.212Z,0
2017-07-03T01:43:43.111Z,0
2017-07-03T01:44:43.107Z,0
2017-07-03T01:45:43.117Z,0
2017-07-03T01:46:43.117Z,0
2017-07-03T01:47:43.115Z,0
2017-07-03T01:48:43.114Z,0
2017-07-03T01:49:43.116Z,0
2017-07-03T01:50:43.051Z,0
2017-07-03T01:51:43.045Z,0
2017-07-03T01:52:43.105Z,0
2017-07-03T01:53:43.127Z,0
2017-07-03T01:54:43.125Z,0
2017-07-03T01:55:43.058Z,0
2017-07-03T01:56:43.137Z,0
2017-07-03T01:57:43.058Z,0
2017-07-03T01:58:43.141Z,0
2017-07-03T01:59:43.136Z,0
2017-07-03T02:00:43.122Z,0
2017-07-03T02:01:43.126Z,0
2017-07-03T02:02:43.120Z,0
2017-07-03T02:03:43.123Z,0
2017-07-03T02:04:43.129Z,0
2017-07-03T02:05:43.126Z,0
2017-07-03T02:06:43.124Z,0
2017-07-03T02:07:43.126Z,0
2017-07-03T02:08:43.125Z,0
2017-07-03T02:09:43.126Z,0
2017-07-03T02:10:43.127Z,0
2017-07-03T02:11:43.126Z,0
2017-07-03T02:12:43.115Z,0
2017-07-03T02:13:43.129Z,0
2017-07-03T02:14:43.130Z,0
2017-07-03T02:15:43.058Z,0
2017-07-03T02:16:43.126Z,0
2017-07-03T02:17:43.144Z,0
2017-07-03T02:18:43.070Z,0
2017-07-03T02:19:43.133Z,0
2017-07-03T02:20:43.062Z,0
2017-07-03T02:21:43.161Z,0
2017-07-03T02:22:43.068Z,0
2017-07-03T02:23:43.157Z,0
2017-07-03T02:24:43.085Z,0
2017-07-03T02:25:43.144Z,0
2017-07-03T02:26:43.136Z,0
2017-07-03T02:27:43.149Z,0
2017-07-03T02:28:43.163Z,0
2017-07-03T02:29:43.163Z,0
2017-07-03T02:30:43.091Z,0
2017-07-03T02:31:43.153Z,0
2017-07-03T02:32:43.162Z,0
2017-07-03T02:33:43.162Z,0
2017-07-03T02:34:43.157Z,0
2017-07-03T02:35:43.148Z,0
2017-07-03T02:36:43.119Z,0
2017-07-03T02:37:43.155Z,0
2017-07-03T02:38:43.150Z,0
2017-07-03T02:39:43.158Z,0
2017-07-03T02:40:43.075Z,0
2017-07-03T02:41:43.159Z,0
2017-07-03T02:42:43.163Z,0
2017-07-03T02:43:43.065Z,0
2017-07-03T02:44:43.121Z,0
2017-07-03T02:45:43.158Z,0
2017-07-03T02:46:43.129Z,0
2017-07-03T02:47:43.166Z,0
2017-07-03T02:48:43.164Z,0
2017-07-03T02:49:43.170Z,0
2017-07-03T02:50:43.077Z,0
2017-07-03T02:51:43.100Z,0
2017-07-03T02:52:43.127Z,0
2017-07-03T02:53:43.171Z,0
2017-07-03T02:54:43.088Z,0
2017-07-03T02:55:43.163Z,0
2017-07-03T02:56:43.178Z,0
2017-07-03T02:57:43.159Z,0
2017-07-03T02:58:43.134Z,0
2017-07-03T02:59:43.111Z,0
2017-07-03T03:00:43.084Z,0
2017-07-03T03:01:43.088Z,0
2017-07-03T03:02:43.157Z,0
2017-07-03T03:03:43.137Z,0
2017-07-03T03:04:43.171Z,0
2017-07-03T03:05:43.180Z,0
2017-07-03T03:06:43.171Z,0
2017-07-03T03:07:43.163Z,0
2017-07-03T03:08:43.177Z,0
2017-07-03T03:09:43.173Z,0
2017-07-03T03:10:43.161Z,0
2017-07-03T03:11:43.102Z,0
2017-07-03T03:12:43.182Z,0
2017-07-03T03:13:43.139Z,0
2017-07-03T03:14:43.179Z,0
2017-07-03T03:15:43.178Z,0
2017-07-03T03:16:43.286Z,0
2017-07-03T03:17:43.096Z,0
2017-07-03T03:18:43.184Z,0
2017-07-03T03:19:43.187Z,0
2017-07-03T03:20:43.179Z,0
2017-07-03T03:21:43.186Z,0
2017-07-03T03:22:43.116Z,0
2017-07-03T03:23:43.144Z,0
2017-07-03T03:24:43.181Z,0
2017-07-03T03:25:43.102Z,0
2017-07-03T03:26:43.118Z,0
2017-07-03T03:27:43.188Z,0
2017-07-03T03:28:43.184Z,0
2017-07-03T03:29:43.195Z,0
2017-07-03T03:30:43.155Z,0
2017-07-03T03:31:43.153Z,0
2017-07-03T03:32:43.156Z,0
2017-07-03T03:33:43.158Z,0
2017-07-03T03:34:43.156Z,0
2017-07-03T03:35:43.157Z,0
2017-07-03T03:36:43.162Z,18
2017-07-03T03:37:43.161Z,19
2017-07-03T03:38:43.156Z,22
2017-07-03T03:39:43.157Z,24
2017-07-03T03:40:43.188Z,24
2017-07-03T03:41:43.162Z,25
2017-07-03T03:42:43.223Z,24
2017-07-03T03:43:43.168Z,24
2017-07-03T03:44:43.161Z,26
2017-07-03T03:45:43.163Z,28
2017-07-03T03:46:43.164Z,28
2017-07-03T03:47:43.162Z,28
2017-07-03T03:48:43.170Z,29
2017-07-03T03:49:43.166Z,32
2017-07-03T03:50:43.105Z,34
2017-07-03T03:51:43.203Z,35
2017-07-03T03:52:43.179Z,32
2017-07-03T03:53:43.195Z,30
2017-07-03T03:54:43.177Z,29
2017-07-03T03:55:43.195Z,30
2017-07-03T03:56:43.198Z,30
2017-07-03T03:57:43.111Z,31
2017-07-03T03:58:43.197Z,31
2017-07-03T03:59:43.193Z,28
2017-07-03T04:00:43.171Z,29
2017-07-03T04:01:43.178Z,29
2017-07-03T04:02:43.174Z,28
2017-07-03T04:03:43.171Z,29
2017-07-03T04:04:43.171Z,31
2017-07-03T04:05:43.178Z,31
2017-07-03T04:06:43.181Z,35
2017-07-03T04:07:43.172Z,37
2017-07-03T04:08:43.176Z,41
2017-07-03T04:09:43.177Z,46
2017-07-03T04:10:43.275Z,50
2017-07-03T04:11:43.189Z,56
2017-07-03T04:12:43.192Z,62
2017-07-03T04:13:43.192Z,65
2017-07-03T04:14:43.192Z,67
2017-07-03T04:15:43.192Z,65
2017-07-03T04:16:43.108Z,67
2017-07-03T04:17:43.195Z,70
2017-07-03T04:18:43.199Z,74
2017-07-03T04:19:43.193Z,76
2017-07-03T04:20:43.220Z,74
2017-07-03T04:21:43.219Z,73
2017-07-03T04:22:43.174Z,74
2017-07-03T04:23:43.129Z,71
2017-07-03T04:24:43.216Z,65
2017-07-03T04:25:43.194Z,55
2017-07-03T04:26:43.223Z,40
2017-07-03T04:27:43.217Z,40
2017-07-03T04:29:43.141Z,40
2017-07-03T04:30:43.218Z,41
2017-07-03T04:31:43.129Z,42
2017-07-03T04:33:43.223Z,47
2017-07-03T04:34:43.242Z,49
2017-07-03T04:35:43.220Z,46
2017-07-03T04:36:43.222Z,46
2017-07-03T04:37:43.227Z,46
2017-07-03T04:38:43.179Z,47
2017-07-03T04:39:43.214Z,45
2017-07-03T04:40:43.199Z,50
2017-07-03T04:41:43.194Z,52
2017-07-03T04:42:43.194Z,51
2017-07-03T04:43:43.201Z,50
2017-07-03T04:44:43.194Z,49
2017-07-03T04:45:43.198Z,50
2017-07-03T04:46:43.195Z,52
2017-07-03T04:47:43.201Z,56
2017-07-03T04:48:43.199Z,56
2017-07-03T04:49:43.206Z,55
2017-07-03T04:50:43.210Z,51
2017-07-03T04:51:43.230Z,49
2017-07-03T04:52:43.241Z,49
2017-07-03T04:53:43.234Z,48
2017-07-03T04:54:43.152Z,46
2017-07-03T04:55:43.192Z,48
2017-07-03T04:56:43.224Z,46
2017-07-03T04:57:43.246Z,43
2017-07-03T04:58:43.233Z,47
2017-07-03T04:59:43.233Z,50
2017-07-03T05:00:43.232Z,55
2017-07-03T05:01:43.223Z,61
2017-07-03T05:02:43.226Z,64
2017-07-03T05:03:43.220Z,69
2017-07-03T05:04:43.221Z,69
2017-07-03T05:05:43.139Z,62
2017-07-03T05:06:43.216Z,52
2017-07-03T05:07:43.223Z,48
2017-07-03T05:08:43.224Z,47
2017-07-03T05:09:43.227Z,47
2017-07-03T05:10:43.225Z,46
2017-07-03T05:11:43.184Z,47
2017-07-03T05:12:43.204Z,47
2017-07-03T05:13:43.145Z,48
2017-07-03T05:14:43.133Z,48
2017-07-03T05:15:43.197Z,49
2017-07-03T05:16:43.156Z,50
2017-07-03T05:17:43.252Z,51
2017-07-03T05:18:43.187Z,52
2017-07-03T05:19:43.200Z,52
2017-07-03T05:20:43.196Z,52
2017-07-03T05:21:43.164Z,53
2017-07-03T05:22:43.162Z,54
2017-07-03T05:23:43.249Z,56
2017-07-03T05:24:43.164Z,57
2017-07-03T05:25:43.169Z,62
2017-07-03T05:26:43.247Z,74
2017-07-03T05:27:43.245Z,86
2017-07-03T05:28:43.233Z,93
2017-07-03T05:29:43.250Z,91
2017-07-03T05:30:43.249Z,88
2017-07-03T05:31:43.256Z,82
2017-07-03T05:32:43.254Z,79
2017-07-03T05:33:43.233Z,80
2017-07-03T05:34:43.267Z,86
2017-07-03T05:35:43.256Z,97
2017-07-03T05:36:43.262Z,116
2017-07-03T05:37:43.224Z,136
2017-07-03T05:38:43.251Z,157
2017-07-03T05:39:43.269Z,159
2017-07-03T05:40:43.267Z,141
2017-07-03T05:41:43.171Z,126
2017-07-03T05:42:43.251Z,110
2017-07-03T05:43:43.223Z,98
2017-07-03T05:44:43.263Z,84
2017-07-03T05:45:43.224Z,73
2017-07-03T05:46:43.261Z,62
2017-07-03T05:47:43.186Z,57
2017-07-03T05:48:43.224Z,59
2017-07-03T05:49:43.184Z,60
2017-07-03T05:50:43.261Z,58
2017-07-03T05:51:43.246Z,57
2017-07-03T05:52:43.245Z,55
2017-07-03T05:53:43.246Z,51
2017-07-03T05:54:43.245Z,55
2017-07-03T05:55:43.246Z,59
2017-07-03T05:56:43.247Z,61
2017-07-03T05:57:43.254Z,63
2017-07-03T05:58:43.251Z,62
2017-07-03T05:59:43.251Z,59
2017-07-03T06:00:43.255Z,62
2017-07-03T06:01:43.251Z,62
2017-07-03T06:02:43.250Z,62
2017-07-03T06:03:43.251Z,61
2017-07-03T06:04:43.355Z,61
2017-07-03T06:05:43.256Z,60
2017-07-03T06:06:43.253Z,60
2017-07-03T06:07:43.254Z,61
2017-07-03T06:08:43.254Z,62
2017-07-03T06:09:43.252Z,62
2017-07-03T06:10:43.253Z,62
2017-07-03T06:11:43.237Z,63
2017-07-03T06:12:43.275Z,62
2017-07-03T06:13:43.274Z,63
2017-07-03T06:14:43.189Z,65
2017-07-03T06:15:43.275Z,65
2017-07-03T06:16:43.195Z,66
2017-07-03T06:17:43.191Z,66
2017-07-03T06:18:43.196Z,66
2017-07-03T06:19:43.277Z,56
2017-07-03T06:20:43.236Z,69
2017-07-03T06:21:43.260Z,70
2017-07-03T06:22:43.264Z,74
2017-07-03T06:23:43.267Z,49
2017-07-03T06:24:43.266Z,151
2017-07-03T06:25:43.265Z,186
2017-07-03T06:26:43.267Z,199
2017-07-03T06:27:43.261Z,212
2017-07-03T06:28:43.269Z,212
2017-07-03T06:29:43.206Z,151
2017-07-03T06:30:43.267Z,144
2017-07-03T06:31:43.285Z,164
2017-07-03T06:32:43.265Z,193
2017-07-03T06:33:43.284Z,186
2017-07-03T06:34:43.207Z,139
2017-07-03T06:35:43.208Z,138
2017-07-03T06:36:43.284Z,209
2017-07-03T06:37:43.287Z,268
2017-07-03T06:38:43.291Z,268
2017-07-03T06:39:43.206Z,298
2017-07-03T06:40:43.295Z,330
2017-07-03T06:41:43.282Z,334
2017-07-03T06:42:43.292Z,339
2017-07-03T06:43:43.292Z,343
2017-07-03T06:44:43.255Z,345
2017-07-03T06:45:43.302Z,344
2017-07-03T06:46:43.286Z,347
2017-07-03T06:47:43.296Z,346
2017-07-03T06:48:43.298Z,387
2017-07-03T06:49:43.307Z,396
2017-07-03T06:50:43.300Z,398
2017-07-03T06:51:43.212Z,403
2017-07-03T06:52:43.213Z,402
2017-07-03T06:53:43.298Z,405
2017-07-03T06:54:43.307Z,405
2017-07-03T06:55:43.301Z,405
2017-07-03T06:56:43.298Z,458
2017-07-03T06:57:43.220Z,472
2017-07-03T06:58:43.215Z,507
2017-07-03T06:59:43.301Z,519
2017-07-03T07:00:43.213Z,532
2017-07-03T07:01:43.216Z,539
2017-07-03T07:02:43.220Z,151
2017-07-03T07:03:43.306Z,577
2017-07-03T07:04:43.221Z,629
2017-07-03T07:05:43.308Z,296
2017-07-03T07:06:43.302Z,319
2017-07-03T07:07:43.224Z,234
2017-07-03T07:08:43.226Z,136
2017-07-03T07:09:43.309Z,623
2017-07-03T07:10:43.307Z,643
2017-07-03T07:11:43.280Z,636
2017-07-03T07:12:43.281Z,636
2017-07-03T07:13:43.280Z,722
2017-07-03T07:14:43.206Z,718
2017-07-03T07:15:43.278Z,714
2017-07-03T07:16:43.281Z,135
2017-07-03T07:17:43.281Z,154
2017-07-03T07:18:43.307Z,672
2017-07-03T07:19:43.285Z,750
2017-07-03T07:20:43.282Z,647
2017-07-03T07:21:43.287Z,235
2017-07-03T07:22:43.285Z,150
2017-07-03T07:23:43.286Z,171
2017-07-03T07:24:43.283Z,754
2017-07-03T07:25:43.286Z,718
2017-07-03T07:26:43.285Z,798
2017-07-03T07:27:43.285Z,812
2017-07-03T07:28:43.288Z,812
2017-07-03T07:29:43.387Z,811
2017-07-03T07:30:43.288Z,816
2017-07-03T07:31:43.319Z,822
2017-07-03T07:32:43.321Z,839
2017-07-03T07:33:43.371Z,867
2017-07-03T07:34:43.235Z,892
2017-07-03T07:35:43.316Z,930
2017-07-03T07:36:43.325Z,688
2017-07-03T07:37:43.318Z,273
2017-07-03T07:38:43.322Z,249
2017-07-03T07:39:43.302Z,237
2017-07-03T07:40:43.346Z,288
2017-07-03T07:41:43.292Z,987
2017-07-03T07:42:43.295Z,323
2017-07-03T07:43:43.295Z,987
2017-07-03T07:44:43.296Z,892
2017-07-03T07:45:43.293Z,434
2017-07-03T07:46:43.297Z,250
2017-07-03T07:47:43.296Z,273
2017-07-03T07:48:43.299Z,988
2017-07-03T07:49:43.306Z,931
2017-07-03T07:50:43.296Z,422
2017-07-03T07:51:43.294Z,267
2017-07-03T07:52:43.299Z,299
2017-07-03T07:53:43.301Z,927
2017-07-03T07:54:43.301Z,810
2017-07-03T07:55:43.296Z,264
2017-07-03T07:56:43.300Z,978
2017-07-03T07:57:43.299Z,961
2017-07-03T07:58:43.300Z,900
2017-07-03T07:59:43.335Z,918
2017-07-03T08:00:43.315Z,922
2017-07-03T08:01:43.318Z,937
2017-07-03T08:02:43.318Z,953
2017-07-03T08:03:43.314Z,967
2017-07-03T08:04:43.314Z,982
2017-07-03T08:05:43.258Z,1011
2017-07-03T08:06:43.317Z,1038
2017-07-03T08:07:43.319Z,625
2017-07-03T08:08:43.319Z,259
2017-07-03T08:09:43.317Z,809
2017-07-03T08:10:43.321Z,366
2017-07-03T08:11:43.318Z,234
2017-07-03T08:12:43.306Z,221
2017-07-03T08:13:43.318Z,1024
2017-07-03T08:14:43.311Z,1004
2017-07-03T08:15:43.310Z,1027
2017-07-03T08:16:43.311Z,1038
2017-07-03T08:17:43.321Z,1029
2017-07-03T08:18:43.317Z,1044
2017-07-03T08:19:43.319Z,1084
2017-07-03T08:20:43.313Z,478
2017-07-03T08:21:43.317Z,1016
2017-07-03T08:22:43.347Z,751
2017-07-03T08:23:43.348Z,332
2017-07-03T08:24:43.365Z,273
2017-07-03T08:25:43.330Z,274
2017-07-03T08:26:43.340Z,258
2017-07-03T08:27:43.332Z,232
2017-07-03T08:28:43.269Z,223
2017-07-03T08:29:43.350Z,218
2017-07-03T08:30:43.358Z,215
2017-07-03T08:31:43.331Z,220
2017-07-03T08:32:43.345Z,258
2017-07-03T08:33:43.293Z,1099
2017-07-03T08:34:43.272Z,442
2017-07-03T08:35:43.388Z,253
2017-07-03T08:36:43.353Z,1045
2017-07-03T08:37:43.356Z,1036
2017-07-03T08:38:43.360Z,1008
2017-07-03T08:39:43.334Z,1007
2017-07-03T08:40:43.357Z,1010
2017-07-03T08:41:43.280Z,1006
2017-07-03T08:42:43.360Z,1020
2017-07-03T08:43:43.357Z,1028
2017-07-03T08:44:43.269Z,1038
2017-07-03T08:45:43.340Z,1051
2017-07-03T08:46:43.269Z,1053
2017-07-03T08:47:43.320Z,1079
2017-07-03T08:48:43.354Z,1061
2017-07-03T08:49:43.338Z,1103
2017-07-03T08:50:43.369Z,1111
2017-07-03T08:51:43.363Z,316
2017-07-03T08:52:43.354Z,384
2017-07-03T08:53:43.374Z,291
2017-07-03T08:54:43.285Z,1020
2017-07-03T08:55:43.352Z,1096
2017-07-03T08:56:43.281Z,743
2017-07-03T08:57:43.277Z,1001
2017-07-03T08:58:43.363Z,1043
2017-07-03T08:59:43.363Z,1050
2017-07-03T09:00:43.368Z,269
2017-07-03T09:01:43.284Z,1045
2017-07-03T09:02:43.351Z,1014
2017-07-03T09:03:43.349Z,974
2017-07-03T09:04:43.346Z,982
2017-07-03T09:05:43.346Z,1024
2017-07-03T09:06:43.345Z,1045
2017-07-03T09:07:43.351Z,1056
2017-07-03T09:08:43.349Z,1062
2017-07-03T09:09:43.355Z,1074
2017-07-03T09:10:43.353Z,1061
2017-07-03T09:11:43.352Z,1047
2017-07-03T09:12:43.355Z,1016
2017-07-03T09:13:43.354Z,1018
2017-07-03T09:14:43.357Z,1020
2017-07-03T09:15:43.354Z,1014
2017-07-03T09:16:43.355Z,1003
2017-07-03T09:18:43.375Z,1002
2017-07-03T09:19:43.354Z,1003
2017-07-03T09:20:43.359Z,1004
2017-07-03T09:21:43.358Z,1005
2017-07-03T09:22:43.358Z,1006
2017-07-03T09:23:43.357Z,1015
2017-07-03T09:24:43.357Z,1016
2017-07-03T09:25:43.360Z,1013
2017-07-03T09:26:43.361Z,1007
2017-07-03T09:27:43.363Z,1011
2017-07-03T09:28:43.359Z,1013
2017-07-03T09:29:43.359Z,1031
2017-07-03T09:30:43.364Z,1029
2017-07-03T09:31:43.362Z,1038
2017-07-03T09:32:43.362Z,1036
2017-07-03T09:33:43.362Z,1029
2017-07-03T09:34:43.365Z,1038
2017-07-03T09:35:43.366Z,1024
2017-07-03T09:36:43.363Z,1020
2017-07-03T09:37:43.370Z,1043
2017-07-03T09:38:43.368Z,1046
2017-07-03T09:39:43.368Z,1054
2017-07-03T09:40:43.369Z,1050
2017-07-03T09:41:43.368Z,1046
2017-07-03T09:42:43.368Z,1036
2017-07-03T09:43:43.374Z,1039
2017-07-03T09:44:43.375Z,1054
2017-07-03T09:45:43.367Z,1054
2017-07-03T09:46:43.373Z,1028
2017-07-03T09:47:43.476Z,884
2017-07-03T09:48:43.369Z,1035
2017-07-03T09:49:43.374Z,1062
2017-07-03T09:50:43.374Z,1067
2017-07-03T09:51:43.383Z,1055
2017-07-03T09:52:43.373Z,1043
2017-07-03T09:53:43.374Z,1036
2017-07-03T09:54:43.373Z,468
2017-07-03T09:55:43.401Z,1074
2017-07-03T09:56:43.399Z,927
2017-07-03T09:57:43.407Z,1059
2017-07-03T09:58:43.398Z,1052
2017-07-03T09:59:43.318Z,1063
2017-07-03T10:00:43.417Z,1057
2017-07-03T10:01:43.404Z,1058
2017-07-03T10:02:43.361Z,1057
2017-07-03T10:03:43.374Z,1055
2017-07-03T10:04:43.370Z,1058
2017-07-03T10:05:43.380Z,1061
2017-07-03T10:06:43.375Z,1063
2017-07-03T10:07:43.375Z,1067
2017-07-03T10:08:43.439Z,1062
2017-07-03T10:09:43.371Z,1064
2017-07-03T10:10:43.377Z,1068
2017-07-03T10:11:43.376Z,1092
2017-07-03T10:12:43.377Z,1102
2017-07-03T10:13:43.381Z,1099
2017-07-03T10:14:43.403Z,1078
2017-07-03T10:15:43.399Z,1089
2017-07-03T10:16:43.321Z,1096
2017-07-03T10:17:43.403Z,1103
2017-07-03T10:18:43.395Z,1101
2017-07-03T10:19:43.390Z,215
2017-07-03T10:20:43.408Z,1152
2017-07-03T10:21:43.420Z,1096
2017-07-03T10:22:43.299Z,1104
2017-07-03T10:23:43.314Z,1088
2017-07-03T10:24:43.391Z,1084
2017-07-03T10:25:43.315Z,1084
2017-07-03T10:26:43.316Z,1092
2017-07-03T10:27:43.334Z,1099
2017-07-03T10:28:43.391Z,1102
2017-07-03T10:29:43.292Z,1105
2017-07-03T10:30:43.303Z,1107
2017-07-03T10:31:43.300Z,1102
2017-07-03T10:32:43.293Z,1103
2017-07-03T10:33:43.312Z,1101
2017-07-03T10:34:43.394Z,1090
2017-07-03T10:35:43.302Z,1095
2017-07-03T10:36:43.397Z,1097
2017-07-03T10:37:43.285Z,1099
2017-07-03T10:38:43.320Z,1099
2017-07-03T10:39:43.303Z,1100
2017-07-03T10:40:43.312Z,1100
2017-07-03T10:41:43.322Z,1099
2017-07-03T10:42:43.397Z,1100
2017-07-03T10:43:43.311Z,1096
2017-07-03T10:44:43.288Z,1100
2017-07-03T10:45:43.402Z,256
2017-07-03T10:46:43.320Z,1111
2017-07-03T10:47:43.401Z,1117
2017-07-03T10:48:43.401Z,1117
2017-07-03T10:49:43.315Z,818
2017-07-03T10:50:43.325Z,1101
2017-07-03T10:51:43.324Z,1110
2017-07-03T10:52:43.289Z,1115
2017-07-03T10:53:43.314Z,1076
2017-07-03T10:54:43.327Z,1096
2017-07-03T10:55:43.404Z,1110
2017-07-03T10:56:43.321Z,1104
2017-07-03T10:57:43.471Z,1098
2017-07-03T10:58:43.355Z,1099
2017-07-03T10:59:43.354Z,1093
2017-07-03T11:00:43.433Z,1105
2017-07-03T11:01:43.434Z,1108
2017-07-03T11:02:43.378Z,1104
2017-07-03T11:03:43.408Z,1100
2017-07-03T11:04:43.482Z,1105
2017-07-03T11:05:43.350Z,1067
2017-07-03T11:06:43.434Z,1052
2017-07-03T11:07:43.445Z,1029
2017-07-03T11:08:43.441Z,1089
2017-07-03T11:09:43.450Z,1070
2017-07-03T11:10:43.435Z,1076
2017-07-03T11:11:43.437Z,1076
2017-07-03T11:12:43.512Z,1072
2017-07-03T11:13:43.416Z,435
2017-07-03T11:14:43.416Z,1106
2017-07-03T11:15:43.419Z,1105
2017-07-03T11:16:43.414Z,1113
2017-07-03T11:17:43.412Z,1098
2017-07-03T11:18:43.519Z,1096
2017-07-03T11:19:43.416Z,1102
2017-07-03T11:20:43.418Z,1092
2017-07-03T11:21:43.417Z,1081
2017-07-03T11:22:43.450Z,1060
2017-07-03T11:23:43.422Z,1092
2017-07-03T11:24:43.367Z,1117
2017-07-03T11:25:43.450Z,1109
2017-07-03T11:26:43.448Z,1095
2017-07-03T11:27:43.360Z,1076
2017-07-03T11:28:43.361Z,1076
2017-07-03T11:29:43.409Z,1069
2017-07-03T11:30:43.411Z,1058
2017-07-03T11:31:43.373Z,1041
2017-07-03T11:32:43.454Z,1085
2017-07-03T11:33:43.375Z,1069
2017-07-03T11:34:43.458Z,1075
2017-07-03T11:35:43.523Z,1100
2017-07-03T11:36:43.373Z,1101
2017-07-03T11:37:43.432Z,1106
2017-07-03T11:38:43.460Z,1099
2017-07-03T11:39:43.375Z,1087
2017-07-03T11:40:43.464Z,1092
2017-07-03T11:41:43.457Z,1087
2017-07-03T11:42:43.369Z,1076
2017-07-03T11:43:43.438Z,1101
2017-07-03T11:44:43.378Z,1088
2017-07-03T11:45:43.418Z,1110
2017-07-03T11:46:43.381Z,1094
2017-07-03T11:47:43.369Z,1085
2017-07-03T11:48:43.440Z,1091
2017-07-03T11:49:43.460Z,1086
2017-07-03T11:50:43.377Z,1077
2017-07-03T11:51:43.457Z,1094
2017-07-03T11:52:43.434Z,1102
2017-07-03T11:53:43.436Z,1084
2017-07-03T11:54:43.434Z,1087
2017-07-03T11:55:43.436Z,1053
2017-07-03T11:56:43.435Z,1126
2017-07-03T11:57:43.435Z,832
2017-07-03T11:58:43.440Z,1089
2017-07-03T11:59:43.440Z,1083
2017-07-03T12:00:43.437Z,1105
2017-07-03T12:01:43.438Z,1111
2017-07-03T12:02:43.438Z,1099
2017-07-03T12:03:43.436Z,1101
2017-07-03T12:04:43.441Z,1107
2017-07-03T12:05:43.441Z,1103
2017-07-03T12:06:43.442Z,1082
2017-07-03T12:07:43.443Z,1094
2017-07-03T12:08:43.443Z,1093
2017-07-03T12:09:43.448Z,1094
2017-07-03T12:10:43.440Z,1098
2017-07-03T12:11:43.442Z,1083
2017-07-03T12:12:43.474Z,1075
2017-07-03T12:13:43.479Z,1083
2017-07-03T12:14:43.469Z,1088
2017-07-03T12:15:43.410Z,1026
2017-07-03T12:16:43.522Z,1099
2017-07-03T12:17:43.397Z,1081
2017-07-03T12:18:43.393Z,1081
2017-07-03T12:19:43.480Z,1098
2017-07-03T12:20:43.478Z,296
2017-07-03T12:21:43.489Z,333
2017-07-03T12:22:43.510Z,1136
2017-07-03T12:23:43.397Z,1121
2017-07-03T12:24:43.401Z,1089
2017-07-03T12:25:43.489Z,1079
2017-07-03T12:26:43.482Z,1069
2017-07-03T12:27:43.536Z,1059
2017-07-03T12:28:43.444Z,1067
2017-07-03T12:29:43.485Z,1063
2017-07-03T12:30:43.485Z,1076
2017-07-03T12:31:43.396Z,1070
2017-07-03T12:32:43.466Z,1091
2017-07-03T12:33:43.468Z,1067
2017-07-03T12:34:43.469Z,1090
2017-07-03T12:35:43.469Z,1140
2017-07-03T12:36:43.468Z,1094
2017-07-03T12:37:43.474Z,1110
2017-07-03T12:38:43.478Z,1111
2017-07-03T12:39:43.477Z,1104
2017-07-03T12:40:43.558Z,1106
2017-07-03T12:41:43.394Z,1089
2017-07-03T12:42:43.481Z,1138
2017-07-03T12:43:43.474Z,1174
2017-07-03T12:44:43.476Z,792
2017-07-03T12:45:43.499Z,486
2017-07-03T12:46:43.473Z,1199
2017-07-03T12:47:43.474Z,1210
2017-07-03T12:48:43.558Z,389
2017-07-03T12:49:43.478Z,368
2017-07-03T12:50:43.477Z,535
2017-07-03T12:51:43.479Z,449
2017-07-03T12:52:43.495Z,1165
2017-07-03T12:53:43.507Z,750
2017-07-03T12:54:43.470Z,1208
2017-07-03T12:55:43.408Z,1132
2017-07-03T12:56:43.550Z,1066
2017-07-03T12:57:43.459Z,1142
2017-07-03T12:58:43.409Z,1116
2017-07-03T12:59:43.506Z,1155
2017-07-03T13:00:43.424Z,1177
2017-07-03T13:01:43.501Z,348
2017-07-03T13:02:43.487Z,1206
2017-07-03T13:03:43.484Z,1158
2017-07-03T13:04:43.484Z,1156
2017-07-03T13:05:43.488Z,1138
2017-07-03T13:06:43.485Z,1140
2017-07-03T13:07:43.485Z,1119
2017-07-03T13:08:43.486Z,1116
2017-07-03T13:09:43.484Z,1099
2017-07-03T13:10:43.489Z,1103
2017-07-03T13:11:43.492Z,1092
2017-07-03T13:12:43.489Z,1090
2017-07-03T13:13:43.541Z,1063
2017-07-03T13:14:43.488Z,1080
2017-07-03T13:15:43.432Z,1084
2017-07-03T13:16:43.431Z,1057
2017-07-03T13:17:43.424Z,1102
2017-07-03T13:18:43.514Z,321
2017-07-03T13:19:43.486Z,1110
2017-07-03T13:20:43.513Z,341
2017-07-03T13:21:43.432Z,1184
2017-07-03T13:22:43.511Z,1159
2017-07-03T13:23:43.474Z,1081
2017-07-03T13:24:43.511Z,1173
2017-07-03T13:25:43.502Z,351
2017-07-03T13:26:43.499Z,345
2017-07-03T13:27:43.499Z,1233
2017-07-03T13:28:43.494Z,412
2017-07-03T13:29:43.500Z,1212
2017-07-03T13:30:43.498Z,1152
2017-07-03T13:31:43.501Z,341
2017-07-03T13:32:43.476Z,301
2017-07-03T13:33:43.679Z,482
2017-07-03T13:34:43.447Z,1108
2017-07-03T13:35:43.525Z,1131
2017-07-03T13:36:43.482Z,1160
2017-07-03T13:37:43.520Z,1132
2017-07-03T13:38:43.438Z,1138
2017-07-03T13:39:43.496Z,259
2017-07-03T13:40:43.433Z,267
2017-07-03T13:41:43.520Z,278
2017-07-03T13:42:43.417Z,1076
2017-07-03T13:43:43.430Z,783
2017-07-03T13:44:43.404Z,1163
2017-07-03T13:45:43.420Z,1151
2017-07-03T13:46:43.528Z,1133
2017-07-03T13:47:43.432Z,941
2017-07-03T13:48:43.513Z,998
2017-07-03T13:49:43.430Z,972
2017-07-03T13:50:43.466Z,738
2017-07-03T13:51:43.423Z,847
2017-07-03T13:52:43.502Z,1001
2017-07-03T13:53:43.501Z,945
2017-07-03T13:54:43.502Z,746
2017-07-03T13:55:43.498Z,808
2017-07-03T13:56:43.499Z,862
2017-07-03T13:57:43.503Z,1039
2017-07-03T13:58:43.500Z,1119
2017-07-03T13:59:43.501Z,519